sensor_id;sensor_type;location;lat;lon;timestamp;pressure;altitude;pressure_sealevel;temperature;humidity
30873;BME280;17579;42.690;2.586;2023-02-03T00:01:45;98429.34;;;9.46;37.16
30873;BME280;17579;42.690;2.586;2023-02-03T00:04:10;98433.47;;;9.50;36.96
30873;BME280;17579;42.690;2.586;2023-02-03T00:06:36;98427.31;;;9.49;37.26
30873;BME280;17579;42.690;2.586;2023-02-03T00:09:02;98435.56;;;9.45;36.51
30873;BME280;17579;42.690;2.586;2023-02-03T00:11:29;98427.88;;;9.42;36.44
30873;BME280;17579;42.690;2.586;2023-02-03T00:13:55;98425.22;;;9.42;36.45
30873;BME280;17579;42.690;2.586;2023-02-03T00:16:20;98424.41;;;9.41;36.80
30873;BME280;17579;42.690;2.586;2023-02-03T00:18:46;98414.66;;;9.42;36.34
30873;BME280;17579;42.690;2.586;2023-02-03T00:21:11;98419.22;;;9.40;36.39
30873;BME280;17579;42.690;2.586;2023-02-03T00:23:39;98413.94;;;9.40;35.65
30873;BME280;17579;42.690;2.586;2023-02-03T00:26:07;98420.91;;;9.41;35.57
30873;BME280;17579;42.690;2.586;2023-02-03T00:28:33;98416.13;;;9.46;35.05
30873;BME280;17579;42.690;2.586;2023-02-03T00:30:58;98417.38;;;9.53;35.04
30873;BME280;17579;42.690;2.586;2023-02-03T00:33:24;98413.34;;;9.60;35.06
30873;BME280;17579;42.690;2.586;2023-02-03T00:35:49;98414.72;;;9.66;34.66
30873;BME280;17579;42.690;2.586;2023-02-03T00:38:15;98422.41;;;9.69;34.99
30873;BME280;17579;42.690;2.586;2023-02-03T00:40:41;98421.88;;;9.64;35.21
30873;BME280;17579;42.690;2.586;2023-02-03T00:43:06;98420.44;;;9.60;35.21
30873;BME280;17579;42.690;2.586;2023-02-03T00:45:32;98425.19;;;9.54;35.46
30873;BME280;17579;42.690;2.586;2023-02-03T00:47:57;98427.19;;;9.51;35.68
30873;BME280;17579;42.690;2.586;2023-02-03T00:50:23;98434.28;;;9.50;35.37
30873;BME280;17579;42.690;2.586;2023-02-03T00:52:48;98433.69;;;9.47;35.17
30873;BME280;17579;42.690;2.586;2023-02-03T00:55:14;98438.22;;;9.45;35.40
30873;BME280;17579;42.690;2.586;2023-02-03T00:57:39;98440.03;;;9.44;35.29
30873;BME280;17579;42.690;2.586;2023-02-03T01:00:06;98427.97;;;9.40;35.88
30873;BME280;17579;42.690;2.586;2023-02-03T01:02:32;98434.44;;;9.36;35.43
30873;BME280;17579;42.690;2.586;2023-02-03T01:04:57;98422.41;;;9.32;35.28
30873;BME280;17579;42.690;2.586;2023-02-03T01:07:23;98426.31;;;9.26;35.17
30873;BME280;17579;42.690;2.586;2023-02-03T01:09:48;98420.41;;;9.23;34.56
30873;BME280;17579;42.690;2.586;2023-02-03T01:12:14;98419.44;;;9.24;35.12
30873;BME280;17579;42.690;2.586;2023-02-03T01:14:39;98425.06;;;9.19;35.42
30873;BME280;17579;42.690;2.586;2023-02-03T01:17:05;98424.66;;;9.12;35.66
30873;BME280;17579;42.690;2.586;2023-02-03T01:19:30;98425.72;;;9.10;35.78
30873;BME280;17579;42.690;2.586;2023-02-03T01:21:56;98420.22;;;9.13;34.10
30873;BME280;17579;42.690;2.586;2023-02-03T01:24:21;98420.19;;;9.26;33.42
30873;BME280;17579;42.690;2.586;2023-02-03T01:26:47;98425.00;;;9.45;32.90
30873;BME280;17579;42.690;2.586;2023-02-03T01:29:13;98423.59;;;9.65;32.00
30873;BME280;17579;42.690;2.586;2023-02-03T01:31:39;98411.56;;;9.85;31.61
30873;BME280;17579;42.690;2.586;2023-02-03T01:34:09;98417.56;;;10.00;30.89
30873;BME280;17579;42.690;2.586;2023-02-03T01:36:35;98414.94;;;10.11;30.52
30873;BME280;17579;42.690;2.586;2023-02-03T01:39:02;98410.88;;;10.18;30.47
30873;BME280;17579;42.690;2.586;2023-02-03T01:41:31;98425.31;;;10.26;30.84
30873;BME280;17579;42.690;2.586;2023-02-03T01:43:59;98426.56;;;10.33;30.13
30873;BME280;17579;42.690;2.586;2023-02-03T01:46:45;98418.75;;;10.31;31.20
30873;BME280;17579;42.690;2.586;2023-02-03T01:49:29;98417.34;;;10.38;31.02
30873;BME280;17579;42.690;2.586;2023-02-03T01:51:59;98406.56;;;10.42;30.14
30873;BME280;17579;42.690;2.586;2023-02-03T01:54:28;98411.03;;;10.28;31.03
30873;BME280;17579;42.690;2.586;2023-02-03T01:56:59;98402.06;;;10.06;31.42
30873;BME280;17579;42.690;2.586;2023-02-03T01:59:27;98396.72;;;9.95;30.63
30873;BME280;17579;42.690;2.586;2023-02-03T02:01:54;98391.22;;;9.98;29.91
30873;BME280;17579;42.690;2.586;2023-02-03T02:04:24;98391.13;;;10.11;29.65
30873;BME280;17579;42.690;2.586;2023-02-03T02:06:50;98389.88;;;10.28;28.74
30873;BME280;17579;42.690;2.586;2023-02-03T02:09:16;98390.47;;;10.45;28.41
30873;BME280;17579;42.690;2.586;2023-02-03T02:11:42;98379.91;;;10.56;28.25
30873;BME280;17579;42.690;2.586;2023-02-03T02:14:08;98379.06;;;10.67;27.89
30873;BME280;17579;42.690;2.586;2023-02-03T02:21:35;98379.09;;;10.89;27.25
30873;BME280;17579;42.690;2.586;2023-02-03T02:24:10;98378.03;;;10.92;27.06
30873;BME280;17579;42.690;2.586;2023-02-03T02:26:49;98388.00;;;10.88;28.01
30873;BME280;17579;42.690;2.586;2023-02-03T02:32:20;98382.59;;;10.90;27.67
30873;BME280;17579;42.690;2.586;2023-02-03T02:35:14;98386.66;;;10.83;28.39
30873;BME280;17579;42.690;2.586;2023-02-03T02:37:58;98383.56;;;10.89;27.76
30873;BME280;17579;42.690;2.586;2023-02-03T02:43:33;98376.91;;;10.95;26.94
30873;BME280;17579;42.690;2.586;2023-02-03T02:46:02;98371.75;;;10.93;27.18
30873;BME280;17579;42.690;2.586;2023-02-03T02:48:32;98370.69;;;10.96;26.62
30873;BME280;17579;42.690;2.586;2023-02-03T02:51:02;98376.72;;;10.98;26.70
30873;BME280;17579;42.690;2.586;2023-02-03T02:53:34;98374.19;;;10.96;26.90
30873;BME280;17579;42.690;2.586;2023-02-03T02:56:04;98373.31;;;10.96;26.91
30873;BME280;17579;42.690;2.586;2023-02-03T02:58:33;98382.13;;;10.96;26.33
30873;BME280;17579;42.690;2.586;2023-02-03T03:01:00;98368.66;;;10.99;26.11
30873;BME280;17579;42.690;2.586;2023-02-03T03:03:26;98365.13;;;10.99;26.44
30873;BME280;17579;42.690;2.586;2023-02-03T03:05:55;98364.56;;;10.95;26.08
30873;BME280;17579;42.690;2.586;2023-02-03T03:08:27;98373.44;;;10.94;26.31
30873;BME280;17579;42.690;2.586;2023-02-03T03:10:56;98368.28;;;10.92;26.37
30873;BME280;17579;42.690;2.586;2023-02-03T03:13:27;98367.44;;;10.92;26.36
30873;BME280;17579;42.690;2.586;2023-02-03T03:15:55;98366.47;;;10.93;25.98
30873;BME280;17579;42.690;2.586;2023-02-03T03:18:27;98366.69;;;10.90;26.27
30873;BME280;17579;42.690;2.586;2023-02-03T03:20:58;98366.81;;;10.88;26.01
30873;BME280;17579;42.690;2.586;2023-02-03T03:23:33;98367.78;;;10.87;26.15
30873;BME280;17579;42.690;2.586;2023-02-03T03:26:11;98366.34;;;10.83;26.80
30873;BME280;17579;42.690;2.586;2023-02-03T03:28:45;98365.50;;;10.83;26.32
30873;BME280;17579;42.690;2.586;2023-02-03T03:31:12;98373.44;;;10.83;25.88
30873;BME280;17579;42.690;2.586;2023-02-03T03:33:37;98371.88;;;10.80;26.05
30873;BME280;17579;42.690;2.586;2023-02-03T03:36:13;98373.78;;;10.78;26.29
30873;BME280;17579;42.690;2.586;2023-02-03T03:38:48;98373.69;;;10.80;25.86
30873;BME280;17579;42.690;2.586;2023-02-03T03:41:20;98372.59;;;10.82;25.59
30873;BME280;17579;42.690;2.586;2023-02-03T03:43:51;98365.38;;;10.84;25.37
30873;BME280;17579;42.690;2.586;2023-02-03T03:46:24;98367.06;;;10.85;25.66
30873;BME280;17579;42.690;2.586;2023-02-03T03:48:55;98360.81;;;10.86;25.69
30873;BME280;17579;42.690;2.586;2023-02-03T03:53:50;98355.41;;;10.88;25.26
30873;BME280;17579;42.690;2.586;2023-02-03T03:56:23;98363.47;;;10.86;25.52
30873;BME280;17579;42.690;2.586;2023-02-03T03:58:51;98355.41;;;10.88;25.10
30873;BME280;17579;42.690;2.586;2023-02-03T04:01:18;98358.88;;;10.88;25.23
30873;BME280;17579;42.690;2.586;2023-02-03T04:03:49;98351.19;;;10.85;25.40
30873;BME280;17579;42.690;2.586;2023-02-03T04:06:16;98350.22;;;10.86;24.86
30873;BME280;17579;42.690;2.586;2023-02-03T04:08:42;98344.81;;;10.88;25.06
30873;BME280;17579;42.690;2.586;2023-02-03T04:11:08;98359.38;;;10.94;25.09
30873;BME280;17579;42.690;2.586;2023-02-03T04:13:33;98364.56;;;10.95;25.03
30873;BME280;17579;42.690;2.586;2023-02-03T04:15:59;98357.31;;;10.97;25.00
30873;BME280;17579;42.690;2.586;2023-02-03T04:18:24;98354.66;;;10.97;25.52
30873;BME280;17579;42.690;2.586;2023-02-03T04:20:50;98350.00;;;10.89;24.98
30873;BME280;17579;42.690;2.586;2023-02-03T04:23:15;98353.13;;;10.83;25.32
30873;BME280;17579;42.690;2.586;2023-02-03T04:25:41;98354.44;;;10.78;25.27
30873;BME280;17579;42.690;2.586;2023-02-03T04:28:07;98353.00;;;10.73;25.20
30873;BME280;17579;42.690;2.586;2023-02-03T04:30:32;98352.00;;;10.74;25.00
30873;BME280;17579;42.690;2.586;2023-02-03T04:32:58;98351.44;;;10.82;24.63
30873;BME280;17579;42.690;2.586;2023-02-03T04:35:23;98350.13;;;10.88;24.83
30873;BME280;17579;42.690;2.586;2023-02-03T04:37:49;98348.28;;;10.88;24.88
30873;BME280;17579;42.690;2.586;2023-02-03T04:40:14;98349.16;;;10.89;25.19
30873;BME280;17579;42.690;2.586;2023-02-03T04:42:40;98345.91;;;10.85;24.85
30873;BME280;17579;42.690;2.586;2023-02-03T04:45:08;98344.56;;;10.80;24.93
30873;BME280;17579;42.690;2.586;2023-02-03T04:47:34;98346.72;;;10.74;24.93
30873;BME280;17579;42.690;2.586;2023-02-03T04:50:00;98348.16;;;10.67;24.94
30873;BME280;17579;42.690;2.586;2023-02-03T04:52:26;98356.34;;;10.64;24.89
30873;BME280;17579;42.690;2.586;2023-02-03T04:54:52;98353.44;;;10.67;24.74
30873;BME280;17579;42.690;2.586;2023-02-03T04:57:17;98352.13;;;10.73;24.94
30873;BME280;17579;42.690;2.586;2023-02-03T04:59:43;98349.84;;;10.80;24.75
30873;BME280;17579;42.690;2.586;2023-02-03T05:02:08;98344.94;;;10.86;24.57
30873;BME280;17579;42.690;2.586;2023-02-03T05:04:34;98345.91;;;10.97;24.94
30873;BME280;17579;42.690;2.586;2023-02-03T05:07:00;98341.31;;;10.99;24.47
30873;BME280;17579;42.690;2.586;2023-02-03T05:09:26;98343.72;;;11.02;24.92
30873;BME280;17579;42.690;2.586;2023-02-03T05:11:52;98340.47;;;10.98;24.81
30873;BME280;17579;42.690;2.586;2023-02-03T05:14:18;98349.88;;;10.91;24.68
30873;BME280;17579;42.690;2.586;2023-02-03T05:16:44;98348.78;;;10.94;24.63
30873;BME280;17579;42.690;2.586;2023-02-03T05:19:09;98349.38;;;10.97;24.79
30873;BME280;17579;42.690;2.586;2023-02-03T05:21:35;98350.38;;;10.96;24.75
30873;BME280;17579;42.690;2.586;2023-02-03T05:24:00;98340.22;;;10.90;24.64
30873;BME280;17579;42.690;2.586;2023-02-03T05:26:28;98343.97;;;10.87;24.74
30873;BME280;17579;42.690;2.586;2023-02-03T05:28:53;98339.03;;;10.83;24.67
30873;BME280;17579;42.690;2.586;2023-02-03T05:31:19;98343.84;;;10.78;24.93
30873;BME280;17579;42.690;2.586;2023-02-03T05:33:44;98353.94;;;10.72;24.79
30873;BME280;17579;42.690;2.586;2023-02-03T05:36:10;98358.41;;;10.72;24.83
30873;BME280;17579;42.690;2.586;2023-02-03T05:38:35;98362.00;;;10.71;24.80
30873;BME280;17579;42.690;2.586;2023-02-03T05:41:01;98359.94;;;10.74;24.70
30873;BME280;17579;42.690;2.586;2023-02-03T05:43:27;98357.22;;;10.76;24.97
30873;BME280;17579;42.690;2.586;2023-02-03T05:45:53;98350.22;;;10.75;24.88
30873;BME280;17579;42.690;2.586;2023-02-03T05:48:19;98356.34;;;10.75;24.82
30873;BME280;17579;42.690;2.586;2023-02-03T05:50:44;98359.13;;;10.74;25.08
30873;BME280;17579;42.690;2.586;2023-02-03T05:53:11;98360.19;;;10.71;24.94
30873;BME280;17579;42.690;2.586;2023-02-03T05:55:36;98360.44;;;10.68;24.75
30873;BME280;17579;42.690;2.586;2023-02-03T05:58:03;98363.19;;;10.67;25.10
30873;BME280;17579;42.690;2.586;2023-02-03T06:00:29;98362.38;;;10.66;25.22
30873;BME280;17579;42.690;2.586;2023-02-03T06:02:57;98367.78;;;10.65;25.00
30873;BME280;17579;42.690;2.586;2023-02-03T06:05:24;98374.84;;;10.64;25.19
30873;BME280;17579;42.690;2.586;2023-02-03T06:07:50;98369.69;;;10.63;24.96
30873;BME280;17579;42.690;2.586;2023-02-03T06:10:16;98374.03;;;10.64;24.91
30873;BME280;17579;42.690;2.586;2023-02-03T06:12:42;98372.09;;;10.66;25.06
30873;BME280;17579;42.690;2.586;2023-02-03T06:15:09;98371.13;;;10.67;25.01
30873;BME280;17579;42.690;2.586;2023-02-03T06:17:35;98375.72;;;10.65;25.00
30873;BME280;17579;42.690;2.586;2023-02-03T06:20:03;98387.38;;;10.62;25.14
30873;BME280;17579;42.690;2.586;2023-02-03T06:22:28;98375.22;;;10.60;25.09
30873;BME280;17579;42.690;2.586;2023-02-03T06:24:54;98380.63;;;10.58;24.87
30873;BME280;17579;42.690;2.586;2023-02-03T06:27:19;98379.78;;;10.57;24.85
30873;BME280;17579;42.690;2.586;2023-02-03T06:29:45;98381.25;;;10.62;25.03
30873;BME280;17579;42.690;2.586;2023-02-03T06:32:10;98386.19;;;10.66;24.89
30873;BME280;17579;42.690;2.586;2023-02-03T06:34:36;98385.09;;;10.69;25.06
30873;BME280;17579;42.690;2.586;2023-02-03T06:37:02;98380.78;;;10.68;25.11
30873;BME280;17579;42.690;2.586;2023-02-03T06:39:27;98390.59;;;10.66;24.89
30873;BME280;17579;42.690;2.586;2023-02-03T06:41:53;98389.91;;;10.64;25.05
30873;BME280;17579;42.690;2.586;2023-02-03T06:44:20;98392.78;;;10.61;24.66
30873;BME280;17579;42.690;2.586;2023-02-03T06:46:45;98388.69;;;10.56;25.04
30873;BME280;17579;42.690;2.586;2023-02-03T06:49:11;98391.31;;;10.56;24.96
30873;BME280;17579;42.690;2.586;2023-02-03T06:51:36;98391.44;;;10.55;25.28
30873;BME280;17579;42.690;2.586;2023-02-03T06:54:02;98396.22;;;10.50;25.10
30873;BME280;17579;42.690;2.586;2023-02-03T06:56:28;98391.53;;;10.42;25.55
30873;BME280;17579;42.690;2.586;2023-02-03T06:58:54;98385.03;;;10.35;25.73
30873;BME280;17579;42.690;2.586;2023-02-03T07:01:20;98400.47;;;10.28;25.80
30873;BME280;17579;42.690;2.586;2023-02-03T07:03:46;98402.13;;;10.18;26.37
30873;BME280;17579;42.690;2.586;2023-02-03T07:06:12;98399.53;;;10.05;26.89
30873;BME280;17579;42.690;2.586;2023-02-03T07:08:38;98406.06;;;9.88;27.57
30873;BME280;17579;42.690;2.586;2023-02-03T07:11:04;98401.47;;;9.79;27.78
30873;BME280;17579;42.690;2.586;2023-02-03T07:13:29;98402.97;;;9.70;28.37
30873;BME280;17579;42.690;2.586;2023-02-03T07:15:55;98407.25;;;9.60;28.26
30873;BME280;17579;42.690;2.586;2023-02-03T07:18:20;98409.34;;;9.54;28.21
30873;BME280;17579;42.690;2.586;2023-02-03T07:20:50;98414.41;;;9.58;28.31
30873;BME280;17579;42.690;2.586;2023-02-03T07:23:16;98414.06;;;9.62;28.28
30873;BME280;17579;42.690;2.586;2023-02-03T07:25:41;98407.44;;;9.57;28.58
30873;BME280;17579;42.690;2.586;2023-02-03T07:28:07;98415.47;;;9.55;28.48
30873;BME280;17579;42.690;2.586;2023-02-03T07:30:33;98414.22;;;9.48;28.53
30873;BME280;17579;42.690;2.586;2023-02-03T07:32:58;98419.72;;;9.45;28.81
30873;BME280;17579;42.690;2.586;2023-02-03T07:35:24;98419.72;;;9.45;28.96
30873;BME280;17579;42.690;2.586;2023-02-03T07:37:51;98415.63;;;9.41;29.43
30873;BME280;17579;42.690;2.586;2023-02-03T07:40:17;98423.31;;;9.44;29.67
30873;BME280;17579;42.690;2.586;2023-02-03T07:42:45;98426.81;;;9.44;29.79
30873;BME280;17579;42.690;2.586;2023-02-03T07:45:12;98426.72;;;9.46;30.19
30873;BME280;17579;42.690;2.586;2023-02-03T07:47:39;98423.50;;;9.53;30.23
30873;BME280;17579;42.690;2.586;2023-02-03T07:50:04;98428.16;;;9.63;30.03
30873;BME280;17579;42.690;2.586;2023-02-03T07:52:30;98426.63;;;9.71;30.49
30873;BME280;17579;42.690;2.586;2023-02-03T07:54:56;98434.75;;;9.81;30.27
30873;BME280;17579;42.690;2.586;2023-02-03T07:57:21;98426.72;;;9.83;30.56
30873;BME280;17579;42.690;2.586;2023-02-03T07:59:47;98420.13;;;9.88;30.63
30873;BME280;17579;42.690;2.586;2023-02-03T08:02:13;98422.31;;;9.95;30.83
30873;BME280;17579;42.690;2.586;2023-02-03T08:04:38;98424.63;;;9.99;31.02
30873;BME280;17579;42.690;2.586;2023-02-03T08:07:04;98429.34;;;10.07;31.17
30873;BME280;17579;42.690;2.586;2023-02-03T08:09:30;98427.31;;;10.11;31.17
30873;BME280;17579;42.690;2.586;2023-02-03T08:11:55;98422.66;;;10.14;31.21
30873;BME280;17579;42.690;2.586;2023-02-03T08:14:21;98427.84;;;10.16;31.21
30873;BME280;17579;42.690;2.586;2023-02-03T08:16:46;98431.91;;;10.20;31.56
30873;BME280;17579;42.690;2.586;2023-02-03T08:19:12;98431.72;;;10.23;31.64
30873;BME280;17579;42.690;2.586;2023-02-03T08:21:37;98428.09;;;10.24;31.70
30873;BME280;17579;42.690;2.586;2023-02-03T08:24:03;98435.81;;;10.27;32.02
30873;BME280;17579;42.690;2.586;2023-02-03T08:26:29;98439.59;;;10.36;32.17
30873;BME280;17579;42.690;2.586;2023-02-03T08:28:55;98439.75;;;10.46;32.11
30873;BME280;17579;42.690;2.586;2023-02-03T08:31:20;98446.88;;;10.56;32.04
30873;BME280;17579;42.690;2.586;2023-02-03T08:33:46;98443.53;;;10.66;31.78
30873;BME280;17579;42.690;2.586;2023-02-03T08:36:11;98447.28;;;10.74;31.86
30873;BME280;17579;42.690;2.586;2023-02-03T08:38:38;98445.63;;;10.85;31.83
30873;BME280;17579;42.690;2.586;2023-02-03T08:41:10;98454.44;;;10.97;31.57
30873;BME280;17579;42.690;2.586;2023-02-03T08:43:37;98448.78;;;11.13;31.34
30873;BME280;17579;42.690;2.586;2023-02-03T08:46:04;98449.03;;;11.21;31.39
30873;BME280;17579;42.690;2.586;2023-02-03T08:48:30;98455.88;;;11.35;31.52
30873;BME280;17579;42.690;2.586;2023-02-03T08:50:56;98453.97;;;11.48;30.94
30873;BME280;17579;42.690;2.586;2023-02-03T08:53:21;98459.16;;;11.61;30.62
30873;BME280;17579;42.690;2.586;2023-02-03T08:55:47;98464.78;;;11.68;30.56
30873;BME280;17579;42.690;2.586;2023-02-03T08:58:12;98468.06;;;11.71;30.25
30873;BME280;17579;42.690;2.586;2023-02-03T09:00:38;98468.75;;;11.73;30.40
30873;BME280;17579;42.690;2.586;2023-02-03T09:03:03;98466.84;;;11.75;30.85
30873;BME280;17579;42.690;2.586;2023-02-03T09:05:30;98477.91;;;11.81;30.84
30873;BME280;17579;42.690;2.586;2023-02-03T09:07:56;98468.75;;;11.85;30.77
30873;BME280;17579;42.690;2.586;2023-02-03T09:10:22;98465.59;;;11.91;30.78
30873;BME280;17579;42.690;2.586;2023-02-03T09:12:47;98468.50;;;11.99;30.59
30873;BME280;17579;42.690;2.586;2023-02-03T09:15:13;98466.47;;;12.03;30.93
30873;BME280;17579;42.690;2.586;2023-02-03T09:17:38;98466.78;;;12.09;30.60
30873;BME280;17579;42.690;2.586;2023-02-03T09:20:04;98471.34;;;12.19;30.46
30873;BME280;17579;42.690;2.586;2023-02-03T09:22:30;98459.16;;;12.27;29.72
30873;BME280;17579;42.690;2.586;2023-02-03T09:24:56;98468.16;;;12.36;29.89
30873;BME280;17579;42.690;2.586;2023-02-03T09:27:22;98469.81;;;12.48;29.74
30873;BME280;17579;42.690;2.586;2023-02-03T09:29:47;98469.75;;;12.60;29.84
30873;BME280;17579;42.690;2.586;2023-02-03T09:32:13;98464.72;;;12.78;29.73
30873;BME280;17579;42.690;2.586;2023-02-03T09:34:39;98459.53;;;12.97;29.03
30873;BME280;17579;42.690;2.586;2023-02-03T09:37:06;98464.03;;;13.07;28.76
30873;BME280;17579;42.690;2.586;2023-02-03T09:39:32;98463.00;;;13.19;28.15
30873;BME280;17579;42.690;2.586;2023-02-03T09:42:07;98463.16;;;13.27;28.71
30873;BME280;17579;42.690;2.586;2023-02-03T09:44:39;98460.06;;;13.43;27.80
30873;BME280;17579;42.690;2.586;2023-02-03T09:47:09;98464.31;;;13.56;27.59
30873;BME280;17579;42.690;2.586;2023-02-03T09:52:12;98457.69;;;13.81;27.61
30873;BME280;17579;42.690;2.586;2023-02-03T09:57:47;98466.84;;;14.17;25.98
30873;BME280;17579;42.690;2.586;2023-02-03T10:00:20;98458.72;;;14.29;26.27
30873;BME280;17579;42.690;2.586;2023-02-03T10:02:55;98464.59;;;14.42;26.29
30873;BME280;17579;42.690;2.586;2023-02-03T10:05:31;98461.28;;;14.60;25.93
30873;BME280;17579;42.690;2.586;2023-02-03T10:08:25;98456.09;;;14.78;25.67
30873;BME280;17579;42.690;2.586;2023-02-03T10:11:02;98456.75;;;14.99;24.89
30873;BME280;17579;42.690;2.586;2023-02-03T10:13:38;98463.03;;;15.08;24.75
30873;BME280;17579;42.690;2.586;2023-02-03T10:18:47;98452.72;;;15.33;24.28
30873;BME280;17579;42.690;2.586;2023-02-03T10:21:16;98455.31;;;15.52;23.56
30873;BME280;17579;42.690;2.586;2023-02-03T10:23:44;98455.66;;;15.67;23.00
30873;BME280;17579;42.690;2.586;2023-02-03T10:26:16;98453.09;;;15.75;23.50
30873;BME280;17579;42.690;2.586;2023-02-03T10:28:52;98450.25;;;15.87;23.89
30873;BME280;17579;42.690;2.586;2023-02-03T10:31:21;98456.47;;;16.05;23.10
30873;BME280;17579;42.690;2.586;2023-02-03T10:33:55;98460.63;;;16.18;23.25
30873;BME280;17579;42.690;2.586;2023-02-03T10:36:30;98454.91;;;16.31;22.26
30873;BME280;17579;42.690;2.586;2023-02-03T10:39:05;98457.63;;;16.39;22.37
30873;BME280;17579;42.690;2.586;2023-02-03T10:41:34;98456.94;;;16.55;21.66
30873;BME280;17579;42.690;2.586;2023-02-03T10:44:02;98453.81;;;16.59;21.60
30873;BME280;17579;42.690;2.586;2023-02-03T10:46:32;98452.38;;;16.65;21.39
30873;BME280;17579;42.690;2.586;2023-02-03T10:48:59;98444.72;;;16.70;21.07
30873;BME280;17579;42.690;2.586;2023-02-03T10:51:28;98448.91;;;16.73;21.31
30873;BME280;17579;42.690;2.586;2023-02-03T10:53:56;98452.34;;;16.83;20.72
30873;BME280;17579;42.690;2.586;2023-02-03T10:56:24;98439.91;;;16.92;20.91
30873;BME280;17579;42.690;2.586;2023-02-03T10:58:54;98436.13;;;17.03;20.89
30873;BME280;17579;42.690;2.586;2023-02-03T11:01:22;98428.16;;;17.11;20.67
30873;BME280;17579;42.690;2.586;2023-02-03T11:06:16;98427.63;;;17.34;20.24
30873;BME280;17579;42.690;2.586;2023-02-03T11:08:44;98434.69;;;17.43;20.06
30873;BME280;17579;42.690;2.586;2023-02-03T11:13:37;98424.53;;;17.55;20.06
30873;BME280;17579;42.690;2.586;2023-02-03T11:16:05;98428.91;;;17.64;20.03
30873;BME280;17579;42.690;2.586;2023-02-03T11:18:53;98425.44;;;17.72;20.85
30873;BME280;17579;42.690;2.586;2023-02-03T11:21:22;98423.47;;;17.82;20.03
30873;BME280;17579;42.690;2.586;2023-02-03T11:26:21;98423.69;;;17.97;20.22
30873;BME280;17579;42.690;2.586;2023-02-03T11:28:50;98431.41;;;18.00;19.99
30873;BME280;17579;42.690;2.586;2023-02-03T11:31:21;98427.72;;;18.01;19.75
30873;BME280;17579;42.690;2.586;2023-02-03T11:33:51;98422.03;;;18.04;19.92
30873;BME280;17579;42.690;2.586;2023-02-03T11:36:19;98424.72;;;18.04;19.69
30873;BME280;17579;42.690;2.586;2023-02-03T11:38:44;98418.53;;;18.04;20.08
30873;BME280;17579;42.690;2.586;2023-02-03T11:43:37;98425.22;;;17.99;20.14
30873;BME280;17579;42.690;2.586;2023-02-03T11:46:04;98415.84;;;17.95;20.41
30873;BME280;17579;42.690;2.586;2023-02-03T11:51:03;98412.59;;;17.83;20.19
30873;BME280;17579;42.690;2.586;2023-02-03T11:53:34;98416.47;;;17.89;20.44
30873;BME280;17579;42.690;2.586;2023-02-03T11:56:29;98420.78;;;17.82;20.80
30873;BME280;17579;42.690;2.586;2023-02-03T11:59:00;98402.94;;;17.91;20.42
30873;BME280;17579;42.690;2.586;2023-02-03T12:01:36;98410.31;;;17.97;20.11
30873;BME280;17579;42.690;2.586;2023-02-03T12:04:40;98419.66;;;17.93;20.72
30873;BME280;17579;42.690;2.586;2023-02-03T12:07:15;98401.50;;;18.05;20.13
30873;BME280;17579;42.690;2.586;2023-02-03T12:18:19;98399.16;;;18.18;20.75
30873;BME280;17579;42.690;2.586;2023-02-03T12:21:10;98384.63;;;18.29;20.95
30873;BME280;17579;42.690;2.586;2023-02-03T12:23:54;98391.47;;;18.31;20.57
30873;BME280;17579;42.690;2.586;2023-02-03T12:26:28;98377.91;;;18.33;19.74
30873;BME280;17579;42.690;2.586;2023-02-03T12:29:03;98385.09;;;18.32;20.47
30873;BME280;17579;42.690;2.586;2023-02-03T12:31:36;98382.09;;;18.35;20.44
30873;BME280;17579;42.690;2.586;2023-02-03T12:37:00;98379.94;;;18.39;19.40
30873;BME280;17579;42.690;2.586;2023-02-03T12:39:35;98386.44;;;18.37;19.67
30873;BME280;17579;42.690;2.586;2023-02-03T12:42:12;98389.94;;;18.37;19.84
30873;BME280;17579;42.690;2.586;2023-02-03T12:44:43;98377.41;;;18.46;19.57
30873;BME280;17579;42.690;2.586;2023-02-03T12:47:19;98374.25;;;18.50;19.19
30873;BME280;17579;42.690;2.586;2023-02-03T12:49:49;98365.16;;;18.51;19.13
30873;BME280;17579;42.690;2.586;2023-02-03T12:52:39;98376.22;;;18.48;19.78
30873;BME280;17579;42.690;2.586;2023-02-03T12:55:21;98364.00;;;18.62;18.80
30873;BME280;17579;42.690;2.586;2023-02-03T12:57:57;98354.28;;;18.61;18.84
30873;BME280;17579;42.690;2.586;2023-02-03T13:00:37;98347.94;;;18.62;18.84
30873;BME280;17579;42.690;2.586;2023-02-03T13:03:12;98345.56;;;18.67;18.56
30873;BME280;17579;42.690;2.586;2023-02-03T13:08:49;98342.88;;;18.67;18.28
30873;BME280;17579;42.690;2.586;2023-02-03T13:11:23;98327.78;;;18.75;17.97
30873;BME280;17579;42.690;2.586;2023-02-03T13:13:55;98338.50;;;18.75;17.56
30873;BME280;17579;42.690;2.586;2023-02-03T13:16:24;98330.47;;;18.75;17.12
30873;BME280;17579;42.690;2.586;2023-02-03T13:18:57;98338.03;;;18.71;17.13
30873;BME280;17579;42.690;2.586;2023-02-03T13:21:24;98335.88;;;18.66;16.89
30873;BME280;17579;42.690;2.586;2023-02-03T13:23:49;98333.19;;;18.66;16.49
30873;BME280;17579;42.690;2.586;2023-02-03T13:26:22;98327.16;;;18.64;16.49
30873;BME280;17579;42.690;2.586;2023-02-03T13:29:03;98314.78;;;18.63;17.01
30873;BME280;17579;42.690;2.586;2023-02-03T13:34:37;98307.38;;;18.65;17.31
30873;BME280;17579;42.690;2.586;2023-02-03T13:37:15;98314.44;;;18.66;17.13
30873;BME280;17579;42.690;2.586;2023-02-03T13:44:42;98290.47;;;18.65;16.81
30873;BME280;17579;42.690;2.586;2023-02-03T13:49:36;98269.22;;;18.63;17.07
30873;BME280;17579;42.690;2.586;2023-02-03T13:52:02;98284.59;;;18.69;17.24
30873;BME280;17579;42.690;2.586;2023-02-03T13:54:33;98286.13;;;18.72;17.12
30873;BME280;17579;42.690;2.586;2023-02-03T13:57:03;98279.53;;;18.75;17.38
30873;BME280;17579;42.690;2.586;2023-02-03T14:05:00;98296.31;;;18.77;17.48
30873;BME280;17579;42.690;2.586;2023-02-03T14:07:42;98307.34;;;18.82;17.54
30873;BME280;17579;42.690;2.586;2023-02-03T14:12:57;98314.91;;;18.86;17.27
30873;BME280;17579;42.690;2.586;2023-02-03T14:15:31;98313.88;;;18.87;17.58
30873;BME280;17579;42.690;2.586;2023-02-03T14:18:00;98308.69;;;18.94;17.25